Walford, Iowa
Current Conditions -  °F | °C
As of 6:52 PM on Friday 24 Oct 2014 (Local Time) from KCID Reporting Station
Haze Haze  
Wind Chill: 58°   Ceiling: 2800
Heat Index: 58°   Visibility: 2mi
Dew Point: 58°   Wind: 5mph
Humidity: 100%   Direction: 190°S
Pressure: 29.93"   Gusts: NA
Location:  41.88°N, 91.83°W
Report Text: KCID 242352Z 19004KT 2SM BR BKN028 14/14 A2993 RMK AO2 SLP137 60000 T01440144 10178 20133 53013
Loading
Personal Weather Stations






























Interactive Weather Map
Tropical Storm Tracking
New forecast layout! Learn more

10-Day Weather Forecast

Advertisements
Track Severe Weather on mobile